Time;durP1;ratioP1;P1;durP2;ratioP2;P2;SDS_P1;SDS_P2;PMS_P1;PMS_P2;Temp;Humidity;BMP_temperature;BMP_pressure;BME280_temperature;BME280_humidity;BME280_pressure;Samples;Min_cycle;Max_cycle;Signal;HPM_P1;HPM_P2
2023/08/21 00:01:30;;;;;;;6.45;5.47;;;;;;;23.67;64.77;65487.28;5052293;28;20836;-53
2023/08/21 00:03:55;;;;;;;7.03;5.53;;;;;;;23.68;64.99;65486.34;5070312;28;20209;-54
2023/08/21 00:06:20;;;;;;;8.82;5.70;;;;;;;23.69;64.89;65486.91;5070040;28;20690;-55
2023/08/21 00:08:46;;;;;;;5.88;5.20;;;;;;;23.57;64.91;65474.16;5070366;28;20697;-55
2023/08/21 00:11:12;;;;;;;9.35;5.68;;;;;;;23.48;65.12;65463.63;5070148;28;20228;-53
2023/08/21 00:13:37;;;;;;;7.18;5.95;;;;;;;23.53;64.91;65469.19;5070158;28;20212;-54
2023/08/21 00:16:03;;;;;;;8.50;5.40;;;;;;;23.51;65.00;65469.53;5069766;28;20608;-55
2023/08/21 00:18:28;;;;;;;8.00;5.97;;;;;;;23.60;64.57;65479.50;5069768;28;20205;-55
2023/08/21 00:20:54;;;;;;;5.85;5.25;;;;;;;23.66;64.87;65486.16;5069789;28;20729;-53
2023/08/21 00:23:20;;;;;;;9.35;5.78;;;;;;;23.54;65.29;65472.84;5069875;28;20201;-53
2023/08/21 00:25:46;;;;;;;10.25;6.10;;;;;;;23.60;63.91;65480.06;5051801;28;20213;-54
2023/08/21 00:28:12;;;;;;;8.25;5.35;;;;;;;23.58;65.54;65474.72;5070152;28;20211;-53
2023/08/21 00:30:38;;;;;;;6.43;5.45;;;;;;;23.56;65.90;65473.06;5051837;28;20675;-55
2023/08/21 00:33:04;;;;;;;6.97;5.10;;;;;;;23.63;65.36;65485.97;5051675;28;20221;-53
2023/08/21 00:35:29;;;;;;;8.98;5.93;;;;;;;23.34;66.25;65451.25;5069596;28;20216;-54
2023/08/21 00:37:55;;;;;;;10.13;6.13;;;;;;;23.32;65.64;65447.03;5071347;28;20232;-55
2023/08/21 00:40:20;;;;;;;8.57;5.38;;;;;;;23.35;66.03;65452.91;5072934;28;20593;-54
2023/08/21 00:42:46;;;;;;;7.82;5.63;;;;;;;23.33;66.46;65448.13;5073107;28;20212;-54
2023/08/21 00:45:11;;;;;;;8.88;5.40;;;;;;;23.33;66.45;65452.72;5073167;28;20279;-53
2023/08/21 00:47:38;;;;;;;6.95;5.38;;;;;;;23.40;67.62;65459.91;5073029;28;20230;-55
2023/08/21 00:50:06;;;;;;;7.07;5.45;;;;;;;23.40;66.00;65457.91;5054983;28;20746;-54
2023/08/21 00:52:36;;;;;;;8.25;5.75;;;;;;;23.47;65.93;65468.25;5073289;28;20258;-58
2023/08/21 00:55:03;;;;;;;7.88;6.13;;;;;;;23.50;65.70;65466.41;5072882;28;20231;-53
2023/08/21 00:57:29;;;;;;;7.35;6.35;;;;;;;23.49;65.93;65465.31;5054659;28;20209;-53
2023/08/21 00:59:54;;;;;;;10.90;6.30;;;;;;;23.47;65.91;65462.53;5054717;28;20759;-54
2023/08/21 01:02:20;;;;;;;7.55;5.63;;;;;;;23.51;65.16;65466.97;5072939;28;20221;-55
2023/08/21 01:04:46;;;;;;;6.72;5.70;;;;;;;23.54;65.03;65472.84;5072882;28;20690;-55
2023/08/21 01:07:13;;;;;;;10.30;6.07;;;;;;;23.50;65.43;65468.41;5072808;28;20231;-55
2023/08/21 01:09:54;;;;;;;8.18;5.47;;;;;;;23.54;66.58;65472.84;5072922;28;20201;-55
2023/08/21 01:12:36;;;;;;;11.50;5.53;;;;;;;23.25;66.71;65439.22;5072989;28;20232;-55
2023/08/21 01:15:06;;;;;;;8.23;5.72;;;;;;;23.20;67.51;65433.72;5054709;28;20284;-54
2023/08/21 01:17:35;;;;;;;10.32;5.70;;;;;;;23.30;66.85;65449.94;5072930;28;20235;-54
2023/08/21 01:20:02;;;;;;;6.90;5.68;;;;;;;23.10;67.20;65425.19;5072419;28;20674;-55
2023/08/21 01:22:36;;;;;;;10.18;6.32;;;;;;;23.09;67.69;65424.09;5072310;28;20215;-54
2023/08/21 01:25:02;;;;;;;9.35;6.32;;;;;;;23.25;67.28;65439.22;5072699;28;20204;-54
2023/08/21 01:27:28;;;;;;;7.78;6.13;;;;;;;23.03;68.03;65414.88;5072726;28;20213;-55
2023/08/21 01:29:54;;;;;;;8.07;6.32;;;;;;;23.05;68.29;65419.66;5072374;28;20365;-54
2023/08/21 01:32:29;;;;;;;6.28;5.68;;;;;;;23.02;68.58;65415.78;5072357;28;20236;-58
2023/08/21 01:34:56;;;;;;;7.85;5.97;;;;;;;23.02;68.11;65411.19;5054380;28;20200;-55
2023/08/21 01:37:23;;;;;;;7.28;5.70;;;;;;;23.00;68.10;65414.13;5072688;28;20208;-53
2023/08/21 01:39:49;;;;;;;10.00;5.95;;;;;;;22.95;68.22;65408.00;5072159;28;20235;-54
2023/08/21 01:42:14;;;;;;;10.43;5.60;;;;;;;22.93;68.51;65406.38;5072717;28;20662;-54
2023/08/21 01:44:39;;;;;;;5.75;4.90;;;;;;;22.87;69.12;65397.16;5054118;28;20702;-55
2023/08/21 01:47:05;;;;;;;6.93;5.30;;;;;;;22.92;68.93;65404.69;5072174;28;20212;-55
2023/08/21 01:49:30;;;;;;;7.88;5.80;;;;;;;22.86;69.37;65398.06;5071331;28;20201;-55
2023/08/21 01:51:56;;;;;;;6.15;5.00;;;;;;;22.90;69.33;65402.50;5054073;28;20588;-55
2023/08/21 01:54:22;;;;;;;5.90;5.30;;;;;;;22.96;69.20;65409.69;5072355;28;20201;-54
2023/08/21 01:56:47;;;;;;;9.07;5.88;;;;;;;22.84;68.99;65393.84;5072113;28;20217;-53
2023/08/21 01:59:12;;;;;;;9.35;5.75;;;;;;;22.84;69.88;65396.41;5072065;28;20197;-56
2023/08/21 02:01:39;;;;;;;7.93;5.40;;;;;;;22.89;70.50;65401.94;5072094;28;20216;-54
2023/08/21 02:04:04;;;;;;;5.80;5.30;;;;;;;22.82;70.42;65393.63;5071986;28;20192;-53
2023/08/21 02:06:29;;;;;;;7.90;5.68;;;;;;;22.85;70.60;65396.94;5071994;28;20212;-54
2023/08/21 02:08:55;;;;;;;9.90;5.55;;;;;;;22.80;71.13;65389.41;5071859;28;20201;-55
2023/08/21 02:11:20;;;;;;;9.38;5.65;;;;;;;22.76;72.03;65390.13;5071896;28;20209;-55
2023/08/21 02:13:46;;;;;;;6.22;5.47;;;;;;;22.68;72.49;65378.13;5071766;28;20246;-54
2023/08/21 02:16:11;;;;;;;7.93;5.93;;;;;;;22.63;73.11;65372.59;5071579;28;20729;-56
2023/08/21 02:18:37;;;;;;;6.55;5.40;;;;;;;22.66;73.46;65373.34;5071955;28;20173;-54
2023/08/21 02:21:02;;;;;;;6.78;5.90;;;;;;;22.70;73.67;65380.91;5071533;28;20262;-53
2023/08/21 02:23:29;;;;;;;5.85;5.13;;;;;;;22.67;74.00;65377.56;5071737;28;20663;-53
2023/08/21 02:25:54;;;;;;;9.20;6.53;;;;;;;22.62;74.24;65372.03;5053782;28;20207;-53
2023/08/21 02:28:20;;;;;;;7.47;5.68;;;;;;;22.53;75.32;65362.03;5071568;28;20205;-54
2023/08/21 02:30:46;;;;;;;6.30;5.72;;;;;;;22.41;76.25;65348.75;5071424;28;20200;-54
2023/08/21 02:33:11;;;;;;;8.98;5.47;;;;;;;22.64;75.17;65374.25;5071537;28;20220;-55
2023/08/21 02:35:37;;;;;;;7.80;6.30;;;;;;;22.72;75.02;65385.13;5071304;28;20197;-53
2023/08/21 02:38:02;;;;;;;5.95;5.45;;;;;;;22.33;76.84;65342.47;5071299;28;20710;-56
2023/08/21 02:40:28;;;;;;;7.07;5.60;;;;;;;22.22;77.84;65330.84;5053333;28;20213;-59
2023/08/21 02:42:54;;;;;;;10.25;5.68;;;;;;;22.29;77.44;65332.91;5071643;28;20667;-58
2023/08/21 02:45:19;;;;;;;8.10;6.05;;;;;;;22.48;74.45;65356.53;5071113;28;20202;-55
2023/08/21 02:47:45;;;;;;;7.95;5.75;;;;;;;22.27;74.64;65331.25;5071561;28;20208;-57
2023/08/21 02:50:10;;;;;;;11.35;6.00;;;;;;;22.06;75.93;65310.03;5071263;28;20227;-54
2023/08/21 02:52:36;;;;;;;8.52;5.70;;;;;;;21.82;76.73;65284.00;5071434;28;20713;-54
2023/08/21 02:55:03;;;;;;;7.55;5.43;;;;;;;21.73;77.53;65274.59;5071281;28;20585;-54
2023/08/21 02:57:29;;;;;;;7.07;5.20;;;;;;;21.77;77.07;65275.34;5052805;28;20277;-54
2023/08/21 02:59:55;;;;;;;5.65;5.07;;;;;;;21.95;75.47;65298.41;5070460;28;20225;-52
2023/08/21 03:02:21;;;;;;;5.82;5.15;;;;;;;21.82;75.94;65286.59;5070869;28;20217;-54
2023/08/21 03:04:47;;;;;;;9.48;5.53;;;;;;;21.90;75.37;65292.88;5070922;28;20274;-55
2023/08/21 03:07:13;;;;;;;5.53;5.00;;;;;;;21.82;75.27;65284.00;5070654;28;20215;-54
2023/08/21 03:09:39;;;;;;;7.20;5.45;;;;;;;21.80;75.42;65281.22;5070925;28;20205;-54
2023/08/21 03:12:05;;;;;;;7.57;5.30;;;;;;;21.55;76.78;65254.66;5070965;28;20213;-55
2023/08/21 03:14:31;;;;;;;8.93;5.40;;;;;;;21.34;78.23;65230.91;5070746;28;20200;-55
2023/08/21 03:16:56;;;;;;;7.10;4.75;;;;;;;21.20;78.34;65213.41;5070559;28;20220;-53
2023/08/21 03:19:22;;;;;;;5.70;5.00;;;;;;;21.07;78.91;65201.59;5052662;28;20581;-53
2023/08/21 03:21:47;;;;;;;5.97;5.10;;;;;;;21.04;79.32;65198.28;5052676;28;20714;-53
2023/08/21 03:24:12;;;;;;;5.55;5.05;;;;;;;21.09;79.96;65203.25;5070784;28;20283;-54
2023/08/21 03:26:38;;;;;;;10.93;5.18;;;;;;;21.11;78.49;65208.56;5070261;28;20655;-53
2023/08/21 03:29:04;;;;;;;5.40;4.90;;;;;;;21.11;79.07;65203.44;5070572;28;20203;-54
2023/08/21 03:31:30;;;;;;;8.35;5.15;;;;;;;21.09;78.67;65206.38;5070680;28;20204;-54
2023/08/21 03:33:56;;;;;;;5.18;4.68;;;;;;;21.13;79.04;65210.78;5070540;28;20197;-55
2023/08/21 03:36:30;;;;;;;9.73;5.35;;;;;;;21.01;79.90;65194.41;5070628;28;20587;-54
2023/08/21 03:39:00;;;;;;;6.80;5.00;;;;;;;20.92;79.80;65182.44;5052666;28;20219;-55
2023/08/21 03:41:26;;;;;;;5.95;5.35;;;;;;;20.91;80.05;65186.44;5070342;28;20253;-55
2023/08/21 03:43:51;;;;;;;5.78;5.28;;;;;;;21.11;79.79;65206.00;5070369;28;20189;-54
2023/08/21 03:46:16;;;;;;;6.05;5.45;;;;;;;21.01;80.41;65194.94;5070190;28;20196;-55
2023/08/21 03:48:43;;;;;;;7.72;5.63;;;;;;;20.96;81.61;65189.41;5070232;28;20561;-55
2023/08/21 03:51:08;;;;;;;6.68;5.32;;;;;;;21.05;80.38;65196.81;5052189;28;20208;-51
2023/08/21 03:53:34;;;;;;;7.55;5.57;;;;;;;20.92;80.72;65185.00;5070278;28;20666;-51
2023/08/21 03:56:00;;;;;;;10.48;6.20;;;;;;;20.89;80.66;65182.22;5070279;28;20208;-51
2023/08/21 03:58:26;;;;;;;8.63;5.65;;;;;;;21.05;80.82;65201.94;5070405;28;20196;-50
2023/08/21 04:00:52;;;;;;;6.35;5.50;;;;;;;21.15;80.57;65209.91;5069918;28;20240;-51
2023/08/21 04:03:18;;;;;;;7.88;5.63;;;;;;;21.08;79.97;65202.69;5070116;28;20218;-50
2023/08/21 04:05:44;;;;;;;7.68;6.22;;;;;;;21.16;80.08;65211.53;5070010;28;20223;-51
2023/08/21 04:08:09;;;;;;;10.95;6.05;;;;;;;21.34;80.40;65228.88;5070141;28;20650;-50
2023/08/21 04:10:34;;;;;;;7.72;6.15;;;;;;;21.23;80.58;65219.28;5069955;28;20201;-51
2023/08/21 04:13:00;;;;;;;10.73;5.85;;;;;;;21.33;80.58;65232.91;5071412;28;20216;-51
2023/08/21 04:15:26;;;;;;;11.07;5.82;;;;;;;21.42;79.84;65240.31;5073358;28;20239;-50
2023/08/21 04:17:52;;;;;;;12.45;6.00;;;;;;;21.38;80.25;65235.31;5080870;22;20254;-52
2023/08/21 04:20:21;;;;;;;7.90;6.53;;;;;;;21.29;80.94;65227.94;5073516;28;20212;-51
2023/08/21 04:22:47;;;;;;;6.68;5.70;;;;;;;21.40;80.95;65240.09;5073428;28;20232;-49
2023/08/21 04:25:12;;;;;;;9.10;6.20;;;;;;;21.44;80.87;65242.50;5073426;28;20193;-51
2023/08/21 04:27:38;;;;;;;10.38;6.57;;;;;;;21.34;81.27;65231.44;5073883;28;20313;-56
2023/08/21 04:30:04;;;;;;;8.18;7.10;;;;;;;21.24;81.95;65220.41;5073294;28;20201;-51
2023/08/21 04:32:30;;;;;;;11.38;7.28;;;;;;;21.18;82.54;65213.19;5073598;28;20353;-51
2023/08/21 04:34:56;;;;;;;7.10;6.22;;;;;;;21.23;83.00;65218.75;5073418;28;20690;-51
2023/08/21 04:37:23;;;;;;;10.98;6.63;;;;;;;21.41;82.49;65241.75;5073235;28;20209;-51
2023/08/21 04:39:55;;;;;;;9.50;6.50;;;;;;;21.29;81.23;65227.94;5073226;28;20208;-51
2023/08/21 04:42:20;;;;;;;10.38;6.78;;;;;;;21.20;81.42;65215.41;5080413;22;20264;-50
2023/08/21 04:44:46;;;;;;;10.43;6.80;;;;;;;21.13;81.64;65210.78;5073151;28;20671;-51
2023/08/21 04:47:28;;;;;;;14.25;7.18;;;;;;;21.27;81.66;65223.16;5054928;28;20602;-51
2023/08/21 04:49:55;;;;;;;10.00;7.18;;;;;;;21.33;81.28;65227.78;5073132;28;20325;-52
2023/08/21 04:52:22;;;;;;;10.07;7.63;;;;;;;21.42;80.71;65240.31;5055135;28;20217;-51
2023/08/21 04:54:48;;;;;;;9.52;7.07;;;;;;;21.34;81.13;65234.03;5073041;28;20201;-51
2023/08/21 04:57:14;;;;;;;11.60;8.65;;;;;;;21.36;81.38;65236.22;5073159;28;20301;-57
2023/08/21 04:59:40;;;;;;;13.85;9.05;;;;;;;21.52;81.30;65250.81;5072987;28;20200;-52
2023/08/21 05:02:05;;;;;;;13.20;11.80;;;;;;;21.56;80.85;65255.78;5054825;28;20220;-51
2023/08/21 05:04:32;;;;;;;11.63;8.20;;;;;;;21.60;81.26;65259.66;5054799;28;20197;-50
2023/08/21 05:06:57;;;;;;;9.30;7.85;;;;;;;21.52;81.45;65251.38;5054791;28;20221;-54
2023/08/21 05:09:23;;;;;;;10.88;8.07;;;;;;;21.67;81.17;65267.41;5072861;28;20326;-52
2023/08/21 05:11:48;;;;;;;18.05;16.38;;;;;;;21.83;87.91;65287.69;5072772;28;20288;-51
2023/08/21 05:14:14;;;;;;;11.02;9.63;;;;;;;22.33;86.99;65339.91;5072787;28;20219;-53
2023/08/21 05:16:39;;;;;;;10.88;7.75;;;;;;;22.54;83.36;65361.13;5072976;28;20216;-55
2023/08/21 05:19:19;;;;;;;11.18;7.90;;;;;;;22.74;82.18;65387.91;5054883;28;20208;-52
2023/08/21 05:21:45;;;;;;;11.13;7.10;;;;;;;22.95;80.95;65410.59;5072793;28;20228;-51
2023/08/21 05:24:11;;;;;;;10.15;7.82;;;;;;;23.07;80.43;65421.31;5071418;28;20207;-53
2023/08/21 05:26:38;;;;;;;15.05;8.10;;;;;;;23.11;76.25;65423.72;5054366;28;20686;-52
2023/08/21 05:29:04;;;;;;;11.52;8.32;;;;;;;23.12;74.53;65427.41;5054881;28;20259;-50
2023/08/21 05:31:30;;;;;;;22.80;11.50;;;;;;;23.17;82.17;65429.81;5072397;28;20217;-51
2023/08/21 05:33:55;;;;;;;15.32;9.50;;;;;;;23.13;78.58;65428.50;5072350;28;20280;-51
2023/08/21 05:36:21;;;;;;;12.93;8.77;;;;;;;23.20;76.63;65438.84;5072130;28;20208;-50
2023/08/21 05:38:47;;;;;;;12.02;8.77;;;;;;;22.98;75.87;65409.34;5072255;28;20250;-50
2023/08/21 05:41:13;;;;;;;10.68;8.38;;;;;;;23.11;76.99;65426.31;5072261;28;20232;-51
2023/08/21 05:43:42;;;;;;;8.80;7.50;;;;;;;23.23;75.70;65439.59;5071071;28;20250;-59
2023/08/21 05:46:07;;;;;;;9.90;6.80;;;;;;;23.18;73.93;65433.50;5071153;28;20212;-50
2023/08/21 05:48:33;;;;;;;10.93;7.65;;;;;;;23.16;73.27;65429.28;5072184;28;20197;-53
2023/08/21 05:50:59;;;;;;;14.13;7.80;;;;;;;23.20;72.32;65433.72;5053628;28;20224;-50
2023/08/21 05:53:25;;;;;;;11.85;6.97;;;;;;;23.35;73.32;65449.78;5072176;28;20212;-51
2023/08/21 05:55:51;;;;;;;9.73;7.28;;;;;;;23.43;72.79;65458.09;5071656;28;20189;-51
2023/08/21 05:58:16;;;;;;;11.95;8.10;;;;;;;23.45;71.18;65463.44;5072181;28;20666;-57
2023/08/21 06:00:42;;;;;;;9.32;7.75;;;;;;;23.53;70.66;65472.31;5071747;28;20710;-51
2023/08/21 06:03:08;;;;;;;9.70;7.20;;;;;;;23.73;71.90;65491.34;5071444;28;20297;-53
2023/08/21 06:05:34;;;;;;;9.15;6.97;;;;;;;23.82;70.87;65503.88;5072029;28;20221;-50
2023/08/21 06:08:00;;;;;;;9.10;7.30;;;;;;;23.77;71.44;65496.34;5071780;28;20201;-51
2023/08/21 06:10:26;;;;;;;15.00;7.80;;;;;;;24.00;70.00;65523.84;5071788;28;20204;-50
2023/08/21 06:12:51;;;;;;;13.10;7.43;;;;;;;24.16;68.73;65539.03;5053742;28;20574;-52
2023/08/21 06:15:17;;;;;;;12.77;8.55;;;;;;;24.23;68.62;65546.22;5071587;28;20201;-50
2023/08/21 06:17:43;;;;;;;10.82;7.25;;;;;;;24.01;67.08;65522.38;5053377;28;20266;-51
2023/08/21 06:20:08;;;;;;;15.25;7.50;;;;;;;23.97;67.61;65520.53;5071529;28;20217;-50
2023/08/21 06:22:35;;;;;;;12.15;6.90;;;;;;;23.95;67.71;65516.28;5071773;28;20232;-55
2023/08/21 06:25:01;;;;;;;9.50;6.57;;;;;;;24.13;68.76;65536.25;5071457;28;20201;-51
2023/08/21 06:27:27;;;;;;;9.43;7.65;;;;;;;24.22;64.97;65545.69;5053322;28;20213;-52
2023/08/21 06:29:52;;;;;;;9.80;6.88;;;;;;;24.14;65.94;65536.81;5071259;28;20261;-57
2023/08/21 06:32:18;;;;;;;12.48;7.95;;;;;;;24.24;66.00;65547.88;5052048;22;20316;-51
2023/08/21 06:34:43;;;;;;;12.63;7.50;;;;;;;24.26;66.34;65552.69;5051057;28;20609;-51
2023/08/21 06:37:09;;;;;;;12.80;6.78;;;;;;;24.39;67.10;65567.13;5051506;28;20209;-51
2023/08/21 06:39:35;;;;;;;12.05;6.60;;;;;;;24.61;68.42;65588.94;5051134;28;20233;-53
2023/08/21 06:42:01;;;;;;;25.40;17.30;;;;;;;24.70;64.80;65601.50;5051042;28;20208;-50
2023/08/21 06:44:26;;;;;;;13.88;7.60;;;;;;;24.75;63.63;65603.94;5051250;28;20202;-51
2023/08/21 06:46:52;;;;;;;10.95;7.85;;;;;;;24.78;64.94;65607.81;5051275;28;20251;-51
2023/08/21 06:49:17;;;;;;;9.88;7.53;;;;;;;24.95;66.08;65626.09;5050934;28;20201;-52
2023/08/21 06:51:43;;;;;;;11.20;7.57;;;;;;;25.05;63.40;65636.66;5051053;28;20206;-52
2023/08/21 06:54:09;;;;;;;9.23;7.30;;;;;;;25.18;66.61;65654.22;5050951;28;20206;-51
2023/08/21 06:56:34;;;;;;;9.48;6.97;;;;;;;25.26;65.42;65663.09;5051039;28;20318;-50
2023/08/21 06:59:00;;;;;;;12.80;7.57;;;;;;;25.41;65.85;65677.19;5051307;28;20675;-55
2023/08/21 07:01:25;;;;;;;12.57;8.30;;;;;;;25.52;64.66;65688.84;5050793;28;20213;-51
2023/08/21 07:03:51;;;;;;;10.55;7.57;;;;;;;25.57;62.63;65694.94;5033041;28;20205;-52
2023/08/21 07:06:16;;;;;;;12.10;6.93;;;;;;;25.71;64.63;65709.94;5050733;28;20205;-51
2023/08/21 07:08:42;;;;;;;14.15;7.50;;;;;;;25.79;62.90;65721.41;5032957;28;20205;-51
2023/08/21 07:11:09;;;;;;;10.43;6.90;;;;;;;25.87;63.82;65727.72;5050752;28;20205;-51
2023/08/21 07:13:36;;;;;;;10.45;6.82;;;;;;;25.84;60.48;65726.94;5050777;28;20212;-52
2023/08/21 07:16:02;;;;;;;11.85;7.20;;;;;;;25.90;60.00;65731.03;5050686;28;20207;-54
2023/08/21 07:18:31;;;;;;;13.75;7.30;;;;;;;25.99;57.92;65741.03;5032499;28;20295;-53
2023/08/21 07:20:57;;;;;;;10.32;6.63;;;;;;;26.06;58.54;65748.78;5050424;28;20209;-51
2023/08/21 07:23:23;;;;;;;8.65;6.65;;;;;;;26.07;59.22;65749.38;5050923;28;20202;-51
2023/08/21 07:25:48;;;;;;;15.00;8.07;;;;;;;26.04;58.59;65746.56;5050724;28;20690;-50
2023/08/21 07:28:14;;;;;;;10.07;7.07;;;;;;;26.22;58.10;65766.03;5050485;28;20745;-51
2023/08/21 07:30:39;;;;;;;9.65;7.10;;;;;;;26.42;58.23;65788.81;5050456;28;20189;-52
2023/08/21 07:33:05;;;;;;;12.50;7.55;;;;;;;26.63;57.20;65811.59;5050712;28;20629;-52
2023/08/21 07:35:32;;;;;;;10.00;6.15;;;;;;;26.51;57.02;65795.66;5032452;28;20280;-55
2023/08/21 07:37:58;;;;;;;10.73;7.25;;;;;;;26.37;56.55;65782.69;5050311;28;20309;-52
2023/08/21 07:40:24;;;;;;;11.73;6.50;;;;;;;26.42;56.75;65790.84;5032314;28;20300;-51
2023/08/21 07:42:50;;;;;;;15.00;7.38;;;;;;;26.79;54.46;65828.81;5032640;28;20221;-51
2023/08/21 07:45:16;;;;;;;13.63;7.05;;;;;;;26.80;55.00;65829.94;5050305;28;20205;-52
2023/08/21 07:47:42;;;;;;;8.85;6.05;;;;;;;26.89;54.58;65839.94;5049683;28;20201;-54
2023/08/21 07:50:08;;;;;;;11.38;5.82;;;;;;;27.14;54.38;65868.28;5050369;28;20608;-51
2023/08/21 07:52:37;;;;;;;7.65;5.95;;;;;;;26.95;52.76;65847.16;5050187;28;20382;-52
2023/08/21 07:55:02;;;;;;;7.43;6.07;;;;;;;27.19;53.61;65873.31;5050276;28;20209;-50
2023/08/21 07:57:29;;;;;;;13.00;6.43;;;;;;;27.37;53.73;65893.88;5049915;28;20210;-51
2023/08/21 07:59:55;;;;;;;13.60;6.38;;;;;;;27.27;53.50;65882.19;5049950;28;20216;-51
2023/08/21 08:02:20;;;;;;;7.75;6.25;;;;;;;27.41;53.06;65897.78;5050128;28;20223;-51
2023/08/21 08:04:47;;;;;;;7.30;6.30;;;;;;;27.46;52.76;65903.34;5050125;28;20595;-51
2023/08/21 08:07:12;;;;;;;7.13;5.95;;;;;;;27.53;52.68;65911.13;5050011;28;20213;-57
2023/08/21 08:09:39;;;;;;;13.57;6.13;;;;;;;27.64;50.76;65920.19;5050046;28;20586;-51
2023/08/21 08:12:05;;;;;;;8.98;5.57;;;;;;;27.74;49.78;65931.88;5066896;22;20307;-51
2023/08/21 08:14:31;;;;;;;8.13;5.53;;;;;;;27.72;49.22;65929.66;5069890;28;20208;-50
2023/08/21 08:16:56;;;;;;;7.22;4.95;;;;;;;27.95;47.83;65957.28;5069817;28;20225;-50
2023/08/21 08:19:22;;;;;;;13.10;5.93;;;;;;;28.09;47.63;65970.28;5069867;28;20584;-52
2023/08/21 08:21:47;;;;;;;7.05;5.18;;;;;;;28.27;48.61;65992.34;5069622;28;20212;-51
2023/08/21 08:24:12;;;;;;;5.88;5.25;;;;;;;28.28;49.40;65990.88;5069788;28;20211;-50
2023/08/21 08:26:38;;;;;;;8.35;5.70;;;;;;;28.37;49.43;66000.88;5069883;28;20581;-55
2023/08/21 08:29:05;;;;;;;6.22;5.63;;;;;;;28.43;48.26;66010.69;5069753;28;20228;-50
2023/08/21 08:31:30;;;;;;;9.95;5.07;;;;;;;28.49;46.92;66014.22;5051956;28;20274;-51
2023/08/21 08:33:57;;;;;;;9.60;5.05;;;;;;;28.65;46.43;66032.06;5069925;28;20185;-51
2023/08/21 08:36:22;;;;;;;5.50;4.97;;;;;;;28.77;47.31;66045.97;5069667;28;20675;-51
2023/08/21 08:38:48;;;;;;;11.90;5.32;;;;;;;28.97;45.33;66067.66;5069582;28;20209;-53
2023/08/21 08:41:50;;;;;;;9.02;5.57;;;;;;;29.06;44.84;66080.28;5069694;28;20683;-53
2023/08/21 08:44:17;;;;;;;10.32;5.32;;;;;;;29.04;45.95;66078.06;5069886;28;20287;-53
2023/08/21 08:46:42;;;;;;;7.60;5.55;;;;;;;28.95;45.99;66068.03;5051675;28;20224;-51
2023/08/21 08:49:08;;;;;;;10.13;7.57;;;;;;;29.35;44.62;66112.06;5069550;28;20698;-51
2023/08/21 08:51:37;;;;;;;6.95;5.28;;;;;;;29.51;45.08;66125.22;5069575;28;20231;-51
2023/08/21 08:54:03;;;;;;;7.35;5.32;;;;;;;29.47;43.63;66125.44;5051724;28;20209;-50
2023/08/21 08:56:29;;;;;;;5.97;5.32;;;;;;;29.43;43.77;66118.38;5069571;28;20228;-51
2023/08/21 08:58:54;;;;;;;10.98;5.15;;;;;;;29.53;44.29;66137.84;5070941;28;20277;-51
2023/08/21 09:01:20;;;;;;;8.18;5.80;;;;;;;29.78;43.56;66157.38;5054857;28;20216;-52
2023/08/21 09:03:46;;;;;;;6.03;5.30;;;;;;;29.94;44.81;66174.66;5054922;28;20192;-51
2023/08/21 09:06:11;;;;;;;7.97;5.50;;;;;;;30.19;41.33;66205.09;5073032;28;20247;-50
2023/08/21 09:08:37;;;;;;;15.63;12.73;;;;;;;30.35;42.40;66223.50;5072962;28;20586;-51
2023/08/21 09:11:05;;;;;;;8.05;6.13;;;;;;;30.54;40.38;66239.47;5072669;28;20192;-50
2023/08/21 09:13:31;;;;;;;6.50;4.90;;;;;;;30.55;41.69;66243.22;5072625;28;20220;-51
2023/08/21 09:15:58;;;;;;;12.35;7.03;;;;;;;30.63;41.71;66248.97;5072723;28;20550;-51
2023/08/21 09:18:24;;;;;;;6.88;5.60;;;;;;;30.93;43.04;66284.50;5072829;28;20208;-51
2023/08/21 09:20:50;;;;;;;7.40;5.10;;;;;;;31.19;39.16;66313.47;5072671;28;20212;-52
2023/08/21 09:23:17;;;;;;;13.68;5.47;;;;;;;31.19;40.74;66314.03;5072780;28;20196;-51
2023/08/21 09:25:46;;;;;;;6.78;4.63;;;;;;;31.44;38.47;66344.56;5072855;28;20181;-52
2023/08/21 09:28:12;;;;;;;7.85;5.22;;;;;;;31.42;38.53;66342.31;5072864;28;20212;-50
2023/08/21 09:30:51;;;;;;;6.00;4.28;;;;;;;31.69;38.09;66369.28;5071615;28;20583;-51
2023/08/21 09:33:22;;;;;;;5.50;4.85;;;;;;;31.76;37.70;66376.53;5071256;28;20755;-52
2023/08/21 09:35:48;;;;;;;8.60;4.57;;;;;;;31.73;37.28;66373.19;5072190;28;20201;-55
2023/08/21 09:38:14;;;;;;;5.47;4.82;;;;;;;31.92;37.22;66394.38;5054453;28;20291;-50
2023/08/21 09:40:50;;;;;;;6.78;4.93;;;;;;;31.97;37.66;66397.94;5071813;28;20636;-52
2023/08/21 09:43:16;;;;;;;7.88;5.03;;;;;;;32.37;37.17;66444.63;5071090;28;20283;-54
2023/08/21 09:45:46;;;;;;;8.52;5.40;;;;;;;32.47;37.21;66457.88;5072089;28;20207;-53
2023/08/21 09:48:13;;;;;;;10.07;6.68;;;;;;;32.68;36.81;66479.28;5072665;28;20189;-52
2023/08/21 09:50:40;;;;;;;7.90;5.28;;;;;;;32.79;35.39;66491.56;5072217;28;20235;-52
2023/08/21 09:53:07;;;;;;;11.63;6.07;;;;;;;32.85;36.98;66495.63;5072152;28;20262;-51
2023/08/21 09:55:34;;;;;;;10.73;5.75;;;;;;;32.95;35.33;66508.84;5072300;28;20227;-50
2023/08/21 09:58:01;;;;;;;12.63;6.00;;;;;;;33.02;35.68;66514.66;5072301;28;20262;-51
2023/08/21 10:00:35;;;;;;;5.60;4.93;;;;;;;33.14;34.54;66529.56;5054179;28;20250;-54
2023/08/21 10:03:03;;;;;;;8.10;5.75;;;;;;;32.36;34.91;66446.13;5072092;28;20282;-51
2023/08/21 10:05:33;;;;;;;7.63;4.80;;;;;;;32.75;35.16;66483.91;5071924;28;20227;-52
2023/08/21 10:08:05;;;;;;;9.05;4.72;;;;;;;32.98;35.37;66512.81;5053644;28;20213;-57
2023/08/21 10:10:33;;;;;;;5.57;5.00;;;;;;;32.89;35.55;66502.16;5071053;28;20299;-55
2023/08/21 10:13:00;;;;;;;13.38;5.90;;;;;;;33.36;34.33;66554.69;5043496;22;20258;-50
2023/08/21 10:15:29;;;;;;;11.02;4.95;;;;;;;33.43;33.34;66559.88;5051834;28;20334;-53
2023/08/21 10:17:55;;;;;;;7.00;4.72;;;;;;;33.36;33.83;66554.13;5052134;28;20228;-52
2023/08/21 10:20:24;;;;;;;7.03;4.82;;;;;;;33.85;33.01;66608.91;5033705;28;20210;-52
2023/08/21 10:22:53;;;;;;;8.23;5.03;;;;;;;34.02;33.04;66624.78;5051968;28;20267;-51
2023/08/21 10:25:27;;;;;;;8.73;4.13;;;;;;;34.04;33.11;66629.63;5051849;28;20208;-52
2023/08/21 10:27:57;;;;;;;5.72;4.57;;;;;;;33.92;32.86;66613.56;5051311;28;20221;-51
2023/08/21 10:30:25;;;;;;;7.32;5.03;;;;;;;34.21;33.77;66649.19;5051512;28;20205;-51
2023/08/21 10:32:56;;;;;;;9.23;4.65;;;;;;;34.63;33.57;66692.97;5050811;28;20300;-51
2023/08/21 10:35:24;;;;;;;10.18;5.82;;;;;;;34.99;32.91;66733.28;5051386;28;20280;-51
2023/08/21 10:38:17;;;;;;;5.03;4.50;;;;;;;35.14;32.01;66750.06;5033562;28;20235;-51
2023/08/21 10:41:03;;;;;;;9.77;4.95;;;;;;;35.08;31.88;66745.41;5051557;28;20209;-53
2023/08/21 10:43:41;;;;;;;6.65;4.88;;;;;;;35.06;31.20;66743.72;5050143;28;20213;-52
2023/08/21 10:46:10;;;;;;;8.05;5.10;;;;;;;35.47;32.07;66789.63;5051428;28;20216;-52
2023/08/21 10:48:37;;;;;;;8.00;4.43;;;;;;;35.18;31.19;66753.97;5051129;28;20229;-51
2023/08/21 10:51:07;;;;;;;5.18;4.25;;;;;;;35.05;31.84;66736.81;5051228;28;20197;-52
2023/08/21 10:53:36;;;;;;;4.82;4.32;;;;;;;34.83;30.10;66714.81;5034341;28;20233;-55
2023/08/21 10:56:03;;;;;;;6.72;4.60;;;;;;;34.57;30.38;66686.28;5033497;28;20664;-52
2023/08/21 10:58:54;;;;;;;5.85;4.90;;;;;;;33.83;32.03;66604.06;5051537;28;20206;-53
2023/08/21 11:01:52;;;;;;;10.45;6.40;;;;;;;33.45;33.60;66561.56;5051119;28;20271;-54
2023/08/21 11:04:24;;;;;;;9.52;5.50;;;;;;;33.20;32.98;66536.25;5033143;28;20231;-51
2023/08/21 11:06:51;;;;;;;6.07;4.75;;;;;;;32.67;33.58;66480.75;5051069;28;20300;-53
2023/08/21 11:09:17;;;;;;;5.68;4.47;;;;;;;32.65;33.36;66473.31;5050762;28;20193;-55
2023/08/21 11:11:45;;;;;;;7.45;5.13;;;;;;;33.45;33.28;66566.81;5033312;28;20546;-54
2023/08/21 11:14:10;;;;;;;7.90;4.95;;;;;;;33.97;33.64;66622.34;5050906;28;20200;-52
2023/08/21 11:16:36;;;;;;;6.47;4.47;;;;;;;34.44;32.49;66674.34;5050486;28;20593;-51
2023/08/21 11:19:08;;;;;;;11.60;4.63;;;;;;;34.58;31.65;66687.94;5050771;28;20205;-52
2023/08/21 11:21:34;;;;;;;5.20;4.65;;;;;;;34.75;31.08;66706.41;5050585;28;20201;-52
2023/08/21 11:23:59;;;;;;;9.85;5.57;;;;;;;35.05;30.64;66742.06;5050672;28;20212;-55
2023/08/21 11:26:25;;;;;;;7.47;5.00;;;;;;;35.24;30.82;66760.69;5050830;28;20311;-52
2023/08/21 11:28:51;;;;;;;6.00;4.68;;;;;;;35.15;30.25;66750.63;5050816;28;20220;-51